sensor_id;sensor_type;location;lat;lon;timestamp;P1;durP1;ratioP1;P2;durP2;ratioP2
417;SDS011;49;48.530;9.200;2022-10-31T00:01:22;11.83;;;6.60;;
417;SDS011;49;48.530;9.200;2022-10-31T00:03:51;22.70;;;7.73;;
417;SDS011;49;48.530;9.200;2022-10-31T00:06:20;15.77;;;6.70;;
417;SDS011;49;48.530;9.200;2022-10-31T00:08:47;9.80;;;5.60;;
417;SDS011;49;48.530;9.200;2022-10-31T00:11:18;21.30;;;7.00;;
417;SDS011;49;48.530;9.200;2022-10-31T00:13:45;12.73;;;7.03;;
417;SDS011;49;48.530;9.200;2022-10-31T00:16:13;28.80;;;7.30;;
417;SDS011;49;48.530;9.200;2022-10-31T00:18:40;19.40;;;8.07;;
417;SDS011;49;48.530;9.200;2022-10-31T00:21:07;12.47;;;6.63;;
417;SDS011;49;48.530;9.200;2022-10-31T00:23:35;9.53;;;6.10;;
417;SDS011;49;48.530;9.200;2022-10-31T00:26:02;9.67;;;6.10;;
417;SDS011;49;48.530;9.200;2022-10-31T00:28:30;12.47;;;7.13;;
417;SDS011;49;48.530;9.200;2022-10-31T00:31:00;21.73;;;6.73;;
417;SDS011;49;48.530;9.200;2022-10-31T00:33:27;12.87;;;5.90;;
417;SDS011;49;48.530;9.200;2022-10-31T00:35:54;14.07;;;7.23;;
417;SDS011;49;48.530;9.200;2022-10-31T00:38:21;20.10;;;6.90;;
417;SDS011;49;48.530;9.200;2022-10-31T00:40:49;13.40;;;6.03;;
417;SDS011;49;48.530;9.200;2022-10-31T00:43:16;12.93;;;5.93;;
417;SDS011;49;48.530;9.200;2022-10-31T00:45:43;11.67;;;5.93;;
417;SDS011;49;48.530;9.200;2022-10-31T00:48:10;12.40;;;6.03;;
417;SDS011;49;48.530;9.200;2022-10-31T00:50:37;12.93;;;6.00;;
417;SDS011;49;48.530;9.200;2022-10-31T00:53:04;11.90;;;5.80;;
417;SDS011;49;48.530;9.200;2022-10-31T00:55:32;11.63;;;5.50;;
417;SDS011;49;48.530;9.200;2022-10-31T00:58:00;19.80;;;6.70;;
417;SDS011;49;48.530;9.200;2022-10-31T01:00:27;12.43;;;5.57;;
417;SDS011;49;48.530;9.200;2022-10-31T01:02:54;12.87;;;5.70;;
417;SDS011;49;48.530;9.200;2022-10-31T01:05:21;19.63;;;6.53;;
417;SDS011;49;48.530;9.200;2022-10-31T01:07:48;24.03;;;7.60;;
417;SDS011;49;48.530;9.200;2022-10-31T01:10:14;15.17;;;6.37;;
417;SDS011;49;48.530;9.200;2022-10-31T01:12:43;16.40;;;7.43;;
417;SDS011;49;48.530;9.200;2022-10-31T01:15:14;19.73;;;7.83;;
417;SDS011;49;48.530;9.200;2022-10-31T01:17:43;17.90;;;7.43;;
417;SDS011;49;48.530;9.200;2022-10-31T01:20:10;20.93;;;7.50;;
417;SDS011;49;48.530;9.200;2022-10-31T01:22:38;23.80;;;7.17;;
417;SDS011;49;48.530;9.200;2022-10-31T01:25:05;21.10;;;6.90;;
417;SDS011;49;48.530;9.200;2022-10-31T01:27:33;17.53;;;7.63;;
417;SDS011;49;48.530;9.200;2022-10-31T01:30:00;23.90;;;6.90;;
417;SDS011;49;48.530;9.200;2022-10-31T01:32:28;13.60;;;6.63;;
417;SDS011;49;48.530;9.200;2022-10-31T01:34:55;17.30;;;7.53;;
417;SDS011;49;48.530;9.200;2022-10-31T01:37:22;15.30;;;6.87;;
417;SDS011;49;48.530;9.200;2022-10-31T01:39:49;13.37;;;6.53;;
417;SDS011;49;48.530;9.200;2022-10-31T01:42:17;18.63;;;7.90;;
417;SDS011;49;48.530;9.200;2022-10-31T01:44:56;25.03;;;7.37;;
417;SDS011;49;48.530;9.200;2022-10-31T01:47:37;22.73;;;7.00;;
417;SDS011;49;48.530;9.200;2022-10-31T01:50:10;16.67;;;7.27;;
417;SDS011;49;48.530;9.200;2022-10-31T01:52:47;14.90;;;6.97;;
417;SDS011;49;48.530;9.200;2022-10-31T01:55:18;16.00;;;7.50;;
417;SDS011;49;48.530;9.200;2022-10-31T01:57:49;16.27;;;6.50;;
417;SDS011;49;48.530;9.200;2022-10-31T02:00:20;16.23;;;7.20;;
417;SDS011;49;48.530;9.200;2022-10-31T02:02:49;19.93;;;8.00;;
417;SDS011;49;48.530;9.200;2022-10-31T02:05:17;22.10;;;7.10;;
417;SDS011;49;48.530;9.200;2022-10-31T02:07:48;17.27;;;7.23;;
417;SDS011;49;48.530;9.200;2022-10-31T02:10:20;30.73;;;7.73;;
417;SDS011;49;48.530;9.200;2022-10-31T02:12:48;14.80;;;7.43;;
417;SDS011;49;48.530;9.200;2022-10-31T02:15:16;24.80;;;7.33;;
417;SDS011;49;48.530;9.200;2022-10-31T02:17:43;19.33;;;6.47;;
417;SDS011;49;48.530;9.200;2022-10-31T02:20:14;21.40;;;7.70;;
417;SDS011;49;48.530;9.200;2022-10-31T02:22:50;15.50;;;6.77;;
417;SDS011;49;48.530;9.200;2022-10-31T02:25:34;20.83;;;7.70;;
417;SDS011;49;48.530;9.200;2022-10-31T02:28:22;19.13;;;6.80;;
417;SDS011;49;48.530;9.200;2022-10-31T02:31:07;14.33;;;6.70;;
417;SDS011;49;48.530;9.200;2022-10-31T02:33:50;24.43;;;7.03;;
417;SDS011;49;48.530;9.200;2022-10-31T02:36:22;16.63;;;7.00;;
417;SDS011;49;48.530;9.200;2022-10-31T02:38:56;10.77;;;5.53;;
417;SDS011;49;48.530;9.200;2022-10-31T02:41:32;12.60;;;6.50;;
417;SDS011;49;48.530;9.200;2022-10-31T02:44:05;17.17;;;7.00;;
417;SDS011;49;48.530;9.200;2022-10-31T02:46:39;20.60;;;7.23;;
417;SDS011;49;48.530;9.200;2022-10-31T02:49:12;15.83;;;6.40;;
417;SDS011;49;48.530;9.200;2022-10-31T02:51:47;21.00;;;6.93;;
417;SDS011;49;48.530;9.200;2022-10-31T02:54:18;25.43;;;6.70;;
417;SDS011;49;48.530;9.200;2022-10-31T02:56:47;16.53;;;6.93;;
417;SDS011;49;48.530;9.200;2022-10-31T02:59:16;15.83;;;6.57;;
417;SDS011;49;48.530;9.200;2022-10-31T03:04:47;14.60;;;7.00;;
417;SDS011;49;48.530;9.200;2022-10-31T03:07:31;32.83;;;6.67;;
417;SDS011;49;48.530;9.200;2022-10-31T03:10:09;23.33;;;6.33;;
417;SDS011;49;48.530;9.200;2022-10-31T03:12:46;31.03;;;7.80;;
417;SDS011;49;48.530;9.200;2022-10-31T03:15:21;16.87;;;5.50;;
417;SDS011;49;48.530;9.200;2022-10-31T03:17:55;19.10;;;7.00;;
417;SDS011;49;48.530;9.200;2022-10-31T03:20:29;22.20;;;6.60;;
417;SDS011;49;48.530;9.200;2022-10-31T03:23:00;12.60;;;5.77;;
417;SDS011;49;48.530;9.200;2022-10-31T03:25:29;20.27;;;6.60;;
417;SDS011;49;48.530;9.200;2022-10-31T03:27:57;10.00;;;5.37;;
417;SDS011;49;48.530;9.200;2022-10-31T03:30:27;13.07;;;6.33;;
417;SDS011;49;48.530;9.200;2022-10-31T03:32:58;16.27;;;6.70;;
417;SDS011;49;48.530;9.200;2022-10-31T03:35:29;10.97;;;5.80;;
417;SDS011;49;48.530;9.200;2022-10-31T03:37:58;19.50;;;7.20;;
417;SDS011;49;48.530;9.200;2022-10-31T03:40:28;17.03;;;7.10;;
417;SDS011;49;48.530;9.200;2022-10-31T03:42:58;25.13;;;6.90;;
417;SDS011;49;48.530;9.200;2022-10-31T03:45:30;13.23;;;7.03;;
417;SDS011;49;48.530;9.200;2022-10-31T03:47:59;14.40;;;6.20;;
417;SDS011;49;48.530;9.200;2022-10-31T03:50:28;26.70;;;6.73;;
417;SDS011;49;48.530;9.200;2022-10-31T03:53:02;18.40;;;6.00;;
417;SDS011;49;48.530;9.200;2022-10-31T03:55:33;17.33;;;6.90;;
417;SDS011;49;48.530;9.200;2022-10-31T03:58:06;21.47;;;6.57;;
417;SDS011;49;48.530;9.200;2022-10-31T04:00:36;22.47;;;7.10;;
417;SDS011;49;48.530;9.200;2022-10-31T04:03:06;12.13;;;5.47;;
417;SDS011;49;48.530;9.200;2022-10-31T04:05:36;17.57;;;5.50;;
417;SDS011;49;48.530;9.200;2022-10-31T04:08:05;12.20;;;5.90;;
417;SDS011;49;48.530;9.200;2022-10-31T04:10:37;17.07;;;5.90;;
417;SDS011;49;48.530;9.200;2022-10-31T04:13:05;12.37;;;6.17;;
417;SDS011;49;48.530;9.200;2022-10-31T04:15:36;14.50;;;6.50;;
417;SDS011;49;48.530;9.200;2022-10-31T04:18:05;24.40;;;6.87;;
417;SDS011;49;48.530;9.200;2022-10-31T04:20:33;13.03;;;6.13;;
417;SDS011;49;48.530;9.200;2022-10-31T04:23:02;26.97;;;7.07;;
417;SDS011;49;48.530;9.200;2022-10-31T04:25:30;20.23;;;6.20;;
417;SDS011;49;48.530;9.200;2022-10-31T04:27:57;15.43;;;6.03;;
417;SDS011;49;48.530;9.200;2022-10-31T04:30:24;15.17;;;5.87;;
417;SDS011;49;48.530;9.200;2022-10-31T04:32:51;18.73;;;6.07;;
417;SDS011;49;48.530;9.200;2022-10-31T04:35:19;20.23;;;7.20;;
417;SDS011;49;48.530;9.200;2022-10-31T04:37:46;14.60;;;6.30;;
417;SDS011;49;48.530;9.200;2022-10-31T04:40:13;22.80;;;5.70;;
417;SDS011;49;48.530;9.200;2022-10-31T04:42:39;18.40;;;6.47;;
417;SDS011;49;48.530;9.200;2022-10-31T04:45:06;28.07;;;6.80;;
417;SDS011;49;48.530;9.200;2022-10-31T04:47:33;13.07;;;6.93;;
417;SDS011;49;48.530;9.200;2022-10-31T04:50:00;10.97;;;6.00;;
417;SDS011;49;48.530;9.200;2022-10-31T04:52:29;19.10;;;7.23;;
417;SDS011;49;48.530;9.200;2022-10-31T04:54:56;18.50;;;5.47;;
417;SDS011;49;48.530;9.200;2022-10-31T04:57:22;13.93;;;5.53;;
417;SDS011;49;48.530;9.200;2022-10-31T04:59:49;14.80;;;5.80;;
417;SDS011;49;48.530;9.200;2022-10-31T05:02:16;7.20;;;4.53;;
417;SDS011;49;48.530;9.200;2022-10-31T05:04:43;13.87;;;6.07;;
417;SDS011;49;48.530;9.200;2022-10-31T05:07:10;16.67;;;6.10;;
417;SDS011;49;48.530;9.200;2022-10-31T05:09:38;25.53;;;6.60;;
417;SDS011;49;48.530;9.200;2022-10-31T05:12:05;17.53;;;6.00;;
417;SDS011;49;48.530;9.200;2022-10-31T05:14:32;25.37;;;5.50;;
417;SDS011;49;48.530;9.200;2022-10-31T05:16:58;11.00;;;6.40;;
417;SDS011;49;48.530;9.200;2022-10-31T05:19:25;13.67;;;6.07;;
417;SDS011;49;48.530;9.200;2022-10-31T05:21:52;11.90;;;5.63;;
417;SDS011;49;48.530;9.200;2022-10-31T05:24:19;9.67;;;5.80;;
417;SDS011;49;48.530;9.200;2022-10-31T05:26:48;29.67;;;6.27;;
417;SDS011;49;48.530;9.200;2022-10-31T05:29:15;18.80;;;5.93;;
417;SDS011;49;48.530;9.200;2022-10-31T05:31:42;15.37;;;6.50;;
417;SDS011;49;48.530;9.200;2022-10-31T05:34:09;11.90;;;5.40;;
417;SDS011;49;48.530;9.200;2022-10-31T05:36:36;9.17;;;5.40;;
417;SDS011;49;48.530;9.200;2022-10-31T05:39:03;9.13;;;4.83;;
417;SDS011;49;48.530;9.200;2022-10-31T05:41:30;20.23;;;5.50;;
417;SDS011;49;48.530;9.200;2022-10-31T05:43:59;10.30;;;4.70;;
417;SDS011;49;48.530;9.200;2022-10-31T05:46:25;11.80;;;5.60;;
417;SDS011;49;48.530;9.200;2022-10-31T05:48:52;12.63;;;5.53;;
417;SDS011;49;48.530;9.200;2022-10-31T05:51:19;11.03;;;4.47;;
417;SDS011;49;48.530;9.200;2022-10-31T05:53:46;14.97;;;4.53;;
417;SDS011;49;48.530;9.200;2022-10-31T05:56:13;7.93;;;4.13;;
417;SDS011;49;48.530;9.200;2022-10-31T05:58:40;11.37;;;5.53;;
417;SDS011;49;48.530;9.200;2022-10-31T06:01:08;13.50;;;5.40;;
417;SDS011;49;48.530;9.200;2022-10-31T06:03:35;17.53;;;5.47;;
417;SDS011;49;48.530;9.200;2022-10-31T06:06:01;28.47;;;6.53;;
417;SDS011;49;48.530;9.200;2022-10-31T06:08:29;12.60;;;6.60;;
417;SDS011;49;48.530;9.200;2022-10-31T06:10:55;10.80;;;5.53;;
417;SDS011;49;48.530;9.200;2022-10-31T06:13:22;19.77;;;5.30;;
417;SDS011;49;48.530;9.200;2022-10-31T06:15:49;15.80;;;5.67;;
417;SDS011;49;48.530;9.200;2022-10-31T06:18:18;16.60;;;6.10;;
417;SDS011;49;48.530;9.200;2022-10-31T06:20:45;17.83;;;5.77;;
417;SDS011;49;48.530;9.200;2022-10-31T06:23:12;14.57;;;6.20;;
417;SDS011;49;48.530;9.200;2022-10-31T06:25:39;33.47;;;6.93;;
417;SDS011;49;48.530;9.200;2022-10-31T06:28:06;18.27;;;6.77;;
417;SDS011;49;48.530;9.200;2022-10-31T06:30:33;8.30;;;5.40;;
417;SDS011;49;48.530;9.200;2022-10-31T06:33:03;22.30;;;6.03;;
417;SDS011;49;48.530;9.200;2022-10-31T06:35:31;23.80;;;6.77;;
417;SDS011;49;48.530;9.200;2022-10-31T06:37:58;13.87;;;6.10;;
417;SDS011;49;48.530;9.200;2022-10-31T06:40:25;11.67;;;6.37;;
417;SDS011;49;48.530;9.200;2022-10-31T06:42:56;15.33;;;6.30;;
417;SDS011;49;48.530;9.200;2022-10-31T06:45:23;22.83;;;6.20;;
417;SDS011;49;48.530;9.200;2022-10-31T06:47:50;13.50;;;6.50;;
417;SDS011;49;48.530;9.200;2022-10-31T06:50:18;15.77;;;6.40;;
417;SDS011;49;48.530;9.200;2022-10-31T06:52:50;19.67;;;5.47;;
417;SDS011;49;48.530;9.200;2022-10-31T06:55:17;19.70;;;8.30;;
417;SDS011;49;48.530;9.200;2022-10-31T06:57:48;16.60;;;5.67;;
417;SDS011;49;48.530;9.200;2022-10-31T07:00:16;16.70;;;6.10;;
417;SDS011;49;48.530;9.200;2022-10-31T07:02:43;12.50;;;5.43;;
417;SDS011;49;48.530;9.200;2022-10-31T07:05:10;11.27;;;5.50;;
417;SDS011;49;48.530;9.200;2022-10-31T07:07:36;12.03;;;6.10;;
417;SDS011;49;48.530;9.200;2022-10-31T07:10:05;19.67;;;6.23;;
417;SDS011;49;48.530;9.200;2022-10-31T07:12:32;14.23;;;5.53;;
417;SDS011;49;48.530;9.200;2022-10-31T07:14:59;23.30;;;6.47;;
417;SDS011;49;48.530;9.200;2022-10-31T07:17:25;13.00;;;5.63;;
417;SDS011;49;48.530;9.200;2022-10-31T07:19:52;11.53;;;5.40;;
417;SDS011;49;48.530;9.200;2022-10-31T07:22:19;16.20;;;5.67;;
417;SDS011;49;48.530;9.200;2022-10-31T07:24:46;11.40;;;6.30;;
417;SDS011;49;48.530;9.200;2022-10-31T07:27:14;8.80;;;5.70;;
417;SDS011;49;48.530;9.200;2022-10-31T07:29:41;15.93;;;6.40;;
417;SDS011;49;48.530;9.200;2022-10-31T07:32:08;19.73;;;5.40;;
417;SDS011;49;48.530;9.200;2022-10-31T07:34:35;14.60;;;5.77;;
417;SDS011;49;48.530;9.200;2022-10-31T07:37:02;20.03;;;7.20;;
417;SDS011;49;48.530;9.200;2022-10-31T07:39:28;14.17;;;5.60;;
417;SDS011;49;48.530;9.200;2022-10-31T07:41:57;12.33;;;5.87;;
417;SDS011;49;48.530;9.200;2022-10-31T07:44:26;14.97;;;6.30;;
417;SDS011;49;48.530;9.200;2022-10-31T07:46:52;24.63;;;5.50;;
417;SDS011;49;48.530;9.200;2022-10-31T07:49:19;12.67;;;6.03;;
417;SDS011;49;48.530;9.200;2022-10-31T07:51:46;17.37;;;6.00;;
417;SDS011;49;48.530;9.200;2022-10-31T07:54:13;10.83;;;6.23;;
417;SDS011;49;48.530;9.200;2022-10-31T07:56:40;23.33;;;6.13;;
417;SDS011;49;48.530;9.200;2022-10-31T07:59:07;10.03;;;5.10;;
417;SDS011;49;48.530;9.200;2022-10-31T08:01:35;15.40;;;5.30;;
417;SDS011;49;48.530;9.200;2022-10-31T08:04:02;13.03;;;5.60;;
417;SDS011;49;48.530;9.200;2022-10-31T08:06:28;19.93;;;6.57;;
417;SDS011;49;48.530;9.200;2022-10-31T08:08:55;12.63;;;5.60;;
417;SDS011;49;48.530;9.200;2022-10-31T08:11:22;14.60;;;5.07;;
417;SDS011;49;48.530;9.200;2022-10-31T08:13:49;10.47;;;5.33;;
417;SDS011;49;48.530;9.200;2022-10-31T08:16:16;19.53;;;6.30;;
417;SDS011;49;48.530;9.200;2022-10-31T08:18:44;14.40;;;5.40;;
417;SDS011;49;48.530;9.200;2022-10-31T08:21:11;17.27;;;6.33;;
417;SDS011;49;48.530;9.200;2022-10-31T08:23:38;12.90;;;5.17;;
417;SDS011;49;48.530;9.200;2022-10-31T08:26:04;11.17;;;5.20;;
417;SDS011;49;48.530;9.200;2022-10-31T08:28:32;18.33;;;5.77;;
417;SDS011;49;48.530;9.200;2022-10-31T08:30:58;13.60;;;6.90;;
417;SDS011;49;48.530;9.200;2022-10-31T08:33:25;19.73;;;6.80;;
417;SDS011;49;48.530;9.200;2022-10-31T08:35:53;9.50;;;5.60;;
417;SDS011;49;48.530;9.200;2022-10-31T08:38:20;12.17;;;5.30;;
417;SDS011;49;48.530;9.200;2022-10-31T08:40:48;24.37;;;5.70;;
417;SDS011;49;48.530;9.200;2022-10-31T08:43:16;29.10;;;5.63;;
417;SDS011;49;48.530;9.200;2022-10-31T08:45:43;14.53;;;5.00;;
417;SDS011;49;48.530;9.200;2022-10-31T08:48:13;19.80;;;6.33;;
417;SDS011;49;48.530;9.200;2022-10-31T08:50:42;12.80;;;6.13;;
417;SDS011;49;48.530;9.200;2022-10-31T08:53:12;18.17;;;6.50;;
417;SDS011;49;48.530;9.200;2022-10-31T08:55:41;20.27;;;6.20;;
417;SDS011;49;48.530;9.200;2022-10-31T08:58:09;17.63;;;5.80;;
417;SDS011;49;48.530;9.200;2022-10-31T09:00:38;18.30;;;5.87;;
417;SDS011;49;48.530;9.200;2022-10-31T09:03:06;14.40;;;5.77;;
417;SDS011;49;48.530;9.200;2022-10-31T09:05:38;19.00;;;5.90;;
417;SDS011;49;48.530;9.200;2022-10-31T09:14:48;16.33;;;5.93;;
417;SDS011;49;48.530;9.200;2022-10-31T09:17:15;18.63;;;5.80;;
417;SDS011;49;48.530;9.200;2022-10-31T09:19:42;20.50;;;6.60;;
417;SDS011;49;48.530;9.200;2022-10-31T09:22:10;24.67;;;6.63;;
417;SDS011;49;48.530;9.200;2022-10-31T09:24:38;14.40;;;5.20;;
417;SDS011;49;48.530;9.200;2022-10-31T09:27:07;16.97;;;6.70;;
417;SDS011;49;48.530;9.200;2022-10-31T09:29:34;19.03;;;5.70;;
417;SDS011;49;48.530;9.200;2022-10-31T09:32:01;20.93;;;6.40;;
417;SDS011;49;48.530;9.200;2022-10-31T09:34:29;24.63;;;6.37;;
417;SDS011;49;48.530;9.200;2022-10-31T09:36:56;15.60;;;6.03;;
417;SDS011;49;48.530;9.200;2022-10-31T09:39:23;11.37;;;6.00;;
417;SDS011;49;48.530;9.200;2022-10-31T09:44:47;19.00;;;5.80;;
417;SDS011;49;48.530;9.200;2022-10-31T09:47:23;12.60;;;6.10;;
417;SDS011;49;48.530;9.200;2022-10-31T09:50:06;20.57;;;6.47;;
417;SDS011;49;48.530;9.200;2022-10-31T09:52:43;18.13;;;6.50;;
417;SDS011;49;48.530;9.200;2022-10-31T09:55:19;20.53;;;7.90;;
417;SDS011;49;48.530;9.200;2022-10-31T09:57:54;15.93;;;6.60;;
417;SDS011;49;48.530;9.200;2022-10-31T10:00:23;36.63;;;7.27;;
417;SDS011;49;48.530;9.200;2022-10-31T10:02:51;14.83;;;7.10;;
417;SDS011;49;48.530;9.200;2022-10-31T10:05:24;20.90;;;6.43;;
417;SDS011;49;48.530;9.200;2022-10-31T10:08:02;13.00;;;5.47;;
417;SDS011;49;48.530;9.200;2022-10-31T10:10:39;23.77;;;7.07;;
417;SDS011;49;48.530;9.200;2022-10-31T10:13:19;17.77;;;6.57;;
417;SDS011;49;48.530;9.200;2022-10-31T10:16:00;29.40;;;6.93;;
417;SDS011;49;48.530;9.200;2022-10-31T10:18:38;14.03;;;5.50;;
417;SDS011;49;48.530;9.200;2022-10-31T10:21:16;18.53;;;6.87;;
417;SDS011;49;48.530;9.200;2022-10-31T10:23:57;36.40;;;7.63;;
417;SDS011;49;48.530;9.200;2022-10-31T10:26:36;18.17;;;6.53;;
417;SDS011;49;48.530;9.200;2022-10-31T10:29:14;30.00;;;7.80;;
417;SDS011;49;48.530;9.200;2022-10-31T10:32:13;29.63;;;6.97;;
417;SDS011;49;48.530;9.200;2022-10-31T10:34:47;26.90;;;7.67;;
417;SDS011;49;48.530;9.200;2022-10-31T10:37:21;19.20;;;6.53;;
417;SDS011;49;48.530;9.200;2022-10-31T10:39:59;15.30;;;6.60;;
417;SDS011;49;48.530;9.200;2022-10-31T10:42:33;24.20;;;6.67;;
417;SDS011;49;48.530;9.200;2022-10-31T10:45:20;20.60;;;7.30;;
417;SDS011;49;48.530;9.200;2022-10-31T10:48:06;29.63;;;7.10;;
417;SDS011;49;48.530;9.200;2022-10-31T10:50:41;17.20;;;5.17;;
417;SDS011;49;48.530;9.200;2022-10-31T10:53:17;22.43;;;6.10;;
417;SDS011;49;48.530;9.200;2022-10-31T10:56:02;33.10;;;6.40;;
417;SDS011;49;48.530;9.200;2022-10-31T10:58:38;9.23;;;5.33;;
417;SDS011;49;48.530;9.200;2022-10-31T11:01:12;22.43;;;5.37;;
417;SDS011;49;48.530;9.200;2022-10-31T11:03:40;16.57;;;6.40;;
417;SDS011;49;48.530;9.200;2022-10-31T11:06:16;14.73;;;5.83;;
417;SDS011;49;48.530;9.200;2022-10-31T11:08:47;16.03;;;6.10;;
417;SDS011;49;48.530;9.200;2022-10-31T11:11:19;23.53;;;6.90;;
417;SDS011;49;48.530;9.200;2022-10-31T11:13:53;12.73;;;5.60;;
417;SDS011;49;48.530;9.200;2022-10-31T11:16:30;19.40;;;5.70;;
417;SDS011;49;48.530;9.200;2022-10-31T11:19:06;18.93;;;6.53;;
417;SDS011;49;48.530;9.200;2022-10-31T11:21:39;11.60;;;5.60;;
417;SDS011;49;48.530;9.200;2022-10-31T11:24:12;16.40;;;5.80;;
417;SDS011;49;48.530;9.200;2022-10-31T11:26:42;14.70;;;5.50;;
417;SDS011;49;48.530;9.200;2022-10-31T11:29:13;21.40;;;5.33;;
417;SDS011;49;48.530;9.200;2022-10-31T11:31:43;18.60;;;5.60;;
417;SDS011;49;48.530;9.200;2022-10-31T11:34:18;14.50;;;5.60;;
417;SDS011;49;48.530;9.200;2022-10-31T11:36:54;18.53;;;7.40;;
417;SDS011;49;48.530;9.200;2022-10-31T11:39:27;15.47;;;5.57;;
417;SDS011;49;48.530;9.200;2022-10-31T11:41:59;15.03;;;6.17;;
417;SDS011;49;48.530;9.200;2022-10-31T11:44:28;19.10;;;5.47;;
417;SDS011;49;48.530;9.200;2022-10-31T11:46:59;28.43;;;5.70;;
417;SDS011;49;48.530;9.200;2022-10-31T11:49:29;15.10;;;5.60;;
417;SDS011;49;48.530;9.200;2022-10-31T11:52:01;33.97;;;6.53;;
417;SDS011;49;48.530;9.200;2022-10-31T11:54:32;5.23;;;4.20;;
417;SDS011;49;48.530;9.200;2022-10-31T11:57:05;16.37;;;4.93;;
417;SDS011;49;48.530;9.200;2022-10-31T11:59:52;12.33;;;5.20;;
417;SDS011;49;48.530;9.200;2022-10-31T12:02:22;24.70;;;6.43;;
417;SDS011;49;48.530;9.200;2022-10-31T12:04:51;23.33;;;5.90;;
417;SDS011;49;48.530;9.200;2022-10-31T12:07:26;31.33;;;6.20;;
417;SDS011;49;48.530;9.200;2022-10-31T12:09:53;16.10;;;4.87;;
417;SDS011;49;48.530;9.200;2022-10-31T12:12:30;13.23;;;5.43;;
417;SDS011;49;48.530;9.200;2022-10-31T12:15:09;12.33;;;5.67;;
417;SDS011;49;48.530;9.200;2022-10-31T12:17:48;13.57;;;5.33;;
417;SDS011;49;48.530;9.200;2022-10-31T12:20:20;23.97;;;6.70;;
417;SDS011;49;48.530;9.200;2022-10-31T12:23:00;17.50;;;5.00;;
417;SDS011;49;48.530;9.200;2022-10-31T12:25:35;22.40;;;5.13;;
417;SDS011;49;48.530;9.200;2022-10-31T12:28:16;12.10;;;4.70;;
417;SDS011;49;48.530;9.200;2022-10-31T12:31:03;33.77;;;5.03;;
417;SDS011;49;48.530;9.200;2022-10-31T12:33:47;21.20;;;6.40;;
417;SDS011;49;48.530;9.200;2022-10-31T12:36:27;18.27;;;6.53;;
417;SDS011;49;48.530;9.200;2022-10-31T12:39:04;16.83;;;6.00;;
417;SDS011;49;48.530;9.200;2022-10-31T12:41:46;9.80;;;5.50;;
417;SDS011;49;48.530;9.200;2022-10-31T12:44:40;14.10;;;5.37;;
417;SDS011;49;48.530;9.200;2022-10-31T12:50:41;16.03;;;5.13;;
417;SDS011;49;48.530;9.200;2022-10-31T12:53:26;12.50;;;5.13;;
417;SDS011;49;48.530;9.200;2022-10-31T12:56:06;22.90;;;4.53;;
417;SDS011;49;48.530;9.200;2022-10-31T12:58:44;12.20;;;4.90;;
417;SDS011;49;48.530;9.200;2022-10-31T13:01:17;18.83;;;4.60;;
417;SDS011;49;48.530;9.200;2022-10-31T13:03:49;11.53;;;4.80;;
417;SDS011;49;48.530;9.200;2022-10-31T13:06:24;16.80;;;5.53;;
417;SDS011;49;48.530;9.200;2022-10-31T13:08:57;25.53;;;5.37;;
417;SDS011;49;48.530;9.200;2022-10-31T13:11:27;16.80;;;5.47;;
417;SDS011;49;48.530;9.200;2022-10-31T13:14:00;26.10;;;5.80;;
417;SDS011;49;48.530;9.200;2022-10-31T13:16:48;27.63;;;6.80;;
417;SDS011;49;48.530;9.200;2022-10-31T13:19:17;26.50;;;6.90;;
417;SDS011;49;48.530;9.200;2022-10-31T13:21:51;23.80;;;6.30;;
417;SDS011;49;48.530;9.200;2022-10-31T13:24:39;11.37;;;6.10;;
417;SDS011;49;48.530;9.200;2022-10-31T13:27:11;14.47;;;6.17;;
417;SDS011;49;48.530;9.200;2022-10-31T13:29:42;14.57;;;5.80;;
417;SDS011;49;48.530;9.200;2022-10-31T13:32:16;28.43;;;5.70;;
417;SDS011;49;48.530;9.200;2022-10-31T13:34:44;15.20;;;5.30;;
417;SDS011;49;48.530;9.200;2022-10-31T13:37:19;30.30;;;5.93;;
417;SDS011;49;48.530;9.200;2022-10-31T13:40:00;11.47;;;5.73;;
417;SDS011;49;48.530;9.200;2022-10-31T13:42:38;16.03;;;5.00;;
417;SDS011;49;48.530;9.200;2022-10-31T13:45:14;25.23;;;6.10;;
417;SDS011;49;48.530;9.200;2022-10-31T13:47:42;25.30;;;6.03;;
417;SDS011;49;48.530;9.200;2022-10-31T13:50:21;24.90;;;9.07;;
417;SDS011;49;48.530;9.200;2022-10-31T13:52:51;17.10;;;6.17;;
417;SDS011;49;48.530;9.200;2022-10-31T13:55:37;31.90;;;9.93;;
417;SDS011;49;48.530;9.200;2022-10-31T13:58:19;21.33;;;7.60;;
417;SDS011;49;48.530;9.200;2022-10-31T14:00:58;17.50;;;6.40;;
417;SDS011;49;48.530;9.200;2022-10-31T14:03:36;18.87;;;6.80;;
417;SDS011;49;48.530;9.200;2022-10-31T14:06:05;17.67;;;7.17;;
417;SDS011;49;48.530;9.200;2022-10-31T14:08:36;25.20;;;12.87;;
417;SDS011;49;48.530;9.200;2022-10-31T14:11:05;17.17;;;8.13;;
417;SDS011;49;48.530;9.200;2022-10-31T14:13:35;26.70;;;9.23;;
417;SDS011;49;48.530;9.200;2022-10-31T14:16:06;28.60;;;12.50;;
417;SDS011;49;48.530;9.200;2022-10-31T14:18:46;25.00;;;10.50;;
417;SDS011;49;48.530;9.200;2022-10-31T14:21:25;22.87;;;9.50;;
417;SDS011;49;48.530;9.200;2022-10-31T14:23:58;16.90;;;9.43;;
417;SDS011;49;48.530;9.200;2022-10-31T14:26:32;19.03;;;9.40;;
417;SDS011;49;48.530;9.200;2022-10-31T14:29:02;20.40;;;8.53;;
417;SDS011;49;48.530;9.200;2022-10-31T14:31:44;24.53;;;8.80;;
417;SDS011;49;48.530;9.200;2022-10-31T14:34:20;18.47;;;9.00;;
417;SDS011;49;48.530;9.200;2022-10-31T14:36:55;28.30;;;9.00;;
417;SDS011;49;48.530;9.200;2022-10-31T14:39:31;26.40;;;8.27;;
417;SDS011;49;48.530;9.200;2022-10-31T14:42:06;48.27;;;11.67;;
417;SDS011;49;48.530;9.200;2022-10-31T14:44:51;41.40;;;13.30;;
417;SDS011;49;48.530;9.200;2022-10-31T14:47:31;32.63;;;12.97;;
417;SDS011;49;48.530;9.200;2022-10-31T14:52:56;22.47;;;11.33;;
417;SDS011;49;48.530;9.200;2022-10-31T14:55:28;20.63;;;8.33;;
417;SDS011;49;48.530;9.200;2022-10-31T14:57:55;21.50;;;8.00;;
417;SDS011;49;48.530;9.200;2022-10-31T15:00:27;14.23;;;7.40;;
417;SDS011;49;48.530;9.200;2022-10-31T15:03:01;16.87;;;6.63;;
417;SDS011;49;48.530;9.200;2022-10-31T15:05:40;14.73;;;5.90;;
417;SDS011;49;48.530;9.200;2022-10-31T15:08:13;16.83;;;6.50;;
417;SDS011;49;48.530;9.200;2022-10-31T15:10:54;13.13;;;6.20;;
417;SDS011;49;48.530;9.200;2022-10-31T15:13:21;21.27;;;6.23;;
417;SDS011;49;48.530;9.200;2022-10-31T15:15:49;24.40;;;6.63;;
417;SDS011;49;48.530;9.200;2022-10-31T15:18:20;14.03;;;5.13;;
417;SDS011;49;48.530;9.200;2022-10-31T15:20:49;13.27;;;5.23;;
417;SDS011;49;48.530;9.200;2022-10-31T15:23:20;19.73;;;6.90;;
417;SDS011;49;48.530;9.200;2022-10-31T15:25:50;20.03;;;7.30;;
417;SDS011;49;48.530;9.200;2022-10-31T15:28:25;22.40;;;7.53;;
417;SDS011;49;48.530;9.200;2022-10-31T15:30:53;22.70;;;8.30;;
417;SDS011;49;48.530;9.200;2022-10-31T15:33:21;16.60;;;7.47;;
417;SDS011;49;48.530;9.200;2022-10-31T15:35:56;14.13;;;6.73;;
417;SDS011;49;48.530;9.200;2022-10-31T15:38:24;12.53;;;6.10;;
417;SDS011;49;48.530;9.200;2022-10-31T15:40:57;37.30;;;14.17;;
417;SDS011;49;48.530;9.200;2022-10-31T15:43:30;29.80;;;13.33;;
417;SDS011;49;48.530;9.200;2022-10-31T15:46:03;23.00;;;7.63;;
417;SDS011;49;48.530;9.200;2022-10-31T15:48:33;21.77;;;8.93;;
417;SDS011;49;48.530;9.200;2022-10-31T15:51:03;27.33;;;7.20;;
417;SDS011;49;48.530;9.200;2022-10-31T15:53:32;16.47;;;7.93;;
417;SDS011;49;48.530;9.200;2022-10-31T15:56:04;21.50;;;7.60;;
417;SDS011;49;48.530;9.200;2022-10-31T15:58:39;14.33;;;8.43;;
417;SDS011;49;48.530;9.200;2022-10-31T16:01:19;19.43;;;8.50;;
417;SDS011;49;48.530;9.200;2022-10-31T16:03:56;15.00;;;6.10;;
417;SDS011;49;48.530;9.200;2022-10-31T16:06:25;19.00;;;8.00;;
417;SDS011;49;48.530;9.200;2022-10-31T16:08:52;20.70;;;7.17;;
417;SDS011;49;48.530;9.200;2022-10-31T16:11:23;21.13;;;6.30;;
417;SDS011;49;48.530;9.200;2022-10-31T16:13:57;14.57;;;7.30;;
417;SDS011;49;48.530;9.200;2022-10-31T16:16:28;31.43;;;7.90;;
417;SDS011;49;48.530;9.200;2022-10-31T16:18:56;20.40;;;7.73;;
417;SDS011;49;48.530;9.200;2022-10-31T16:21:27;31.07;;;8.17;;
417;SDS011;49;48.530;9.200;2022-10-31T16:23:58;24.57;;;7.83;;
417;SDS011;49;48.530;9.200;2022-10-31T16:26:27;31.13;;;8.40;;
417;SDS011;49;48.530;9.200;2022-10-31T16:28:57;27.87;;;7.80;;